Time;durP1;ratioP1;P1;durP2;ratioP2;P2;SDS_P1;SDS_P2;PMS_P1;PMS_P2;Temp;Humidity;BMP_temperature;BMP_pressure;BME280_temperature;BME280_humidity;BME280_pressure;Samples;Min_cycle;Max_cycle;Signal;HPM_P1;HPM_P2
2023/10/18 00:00:18;;;;;;;6.72;3.58;;;;;;;;;;5055579;28;20032;-77
2023/10/18 00:02:45;;;;;;;7.38;3.92;;;;;;;;;;5055300;28;20032;-78
2023/10/18 00:05:13;;;;;;;9.73;3.88;;;;;;;;;;5054716;28;20025;-79
2023/10/18 00:07:39;;;;;;;6.07;3.67;;;;;;;;;;5055033;28;20021;-76
2023/10/18 00:10:08;;;;;;;4.88;3.45;;;;;;;;;;5055556;28;20508;-77
2023/10/18 00:12:34;;;;;;;11.38;3.85;;;;;;;;;;5055693;28;20329;-76
2023/10/18 00:15:05;;;;;;;7.18;3.92;;;;;;;;;;5054407;28;20024;-77
2023/10/18 00:17:31;;;;;;;6.25;4.20;;;;;;;;;;5055460;28;20033;-76
2023/10/18 00:19:57;;;;;;;7.65;3.72;;;;;;;;;;5056703;28;20155;-76
2023/10/18 00:22:22;;;;;;;7.60;4.18;;;;;;;;;;5055445;28;20059;-77
2023/10/18 00:24:47;;;;;;;8.48;4.07;;;;;;;;;;5055235;28;20078;-76
2023/10/18 00:27:13;;;;;;;6.63;3.72;;;;;;;;;;5055151;28;20036;-76
2023/10/18 00:29:38;;;;;;;7.03;4.10;;;;;;;;;;5056860;28;20480;-77
2023/10/18 00:32:04;;;;;;;8.80;4.40;;;;;;;;;;5057661;28;20021;-77
2023/10/18 00:34:32;;;;;;;7.78;3.70;;;;;;;;;;5058355;28;20036;-77
2023/10/18 00:36:58;;;;;;;6.45;3.70;;;;;;;;;;5057190;28;20396;-77
2023/10/18 00:39:32;;;;;;;7.35;3.95;;;;;;;;;;5059514;28;20040;-76
2023/10/18 00:44:41;;;;;;;6.03;3.70;;;;;;;;;;5057349;28;20567;-76
2023/10/18 00:47:10;;;;;;;7.43;3.78;;;;;;;;;;5056076;28;20056;-77
2023/10/18 00:49:36;;;;;;;8.48;4.18;;;;;;;;;;5055489;28;20452;-76
2023/10/18 00:52:01;;;;;;;6.35;4.18;;;;;;;;;;5056329;28;20021;-76
2023/10/18 00:54:27;;;;;;;9.60;3.95;;;;;;;;;;5056057;28;20021;-76
2023/10/18 00:56:53;;;;;;;6.25;4.00;;;;;;;;;;5054938;28;20024;-76
2023/10/18 00:59:26;;;;;;;7.38;4.18;;;;;;;;;;5055547;28;20029;-76
2023/10/18 01:02:03;;;;;;;6.40;4.05;;;;;;;;;;5054836;28;20032;-76
2023/10/18 01:04:34;;;;;;;11.02;4.57;;;;;;;;;;5055013;28;20504;-75
2023/10/18 01:07:05;;;;;;;7.30;4.15;;;;;;;;;;5055802;28;20025;-76
2023/10/18 01:09:30;;;;;;;6.88;4.10;;;;;;;;;;5055662;28;20078;-76
2023/10/18 01:11:56;;;;;;;7.60;4.35;;;;;;;;;;5055518;28;20029;-76
2023/10/18 01:14:24;;;;;;;6.88;4.00;;;;;;;;;;5055483;28;20036;-76
2023/10/18 01:16:53;;;;;;;6.97;4.20;;;;;;;;;;5055617;28;20025;-76
2023/10/18 01:19:19;;;;;;;6.63;4.03;;;;;;;;;;5055457;28;20079;-76
2023/10/18 01:21:49;;;;;;;7.45;4.18;;;;;;;;;;5055107;28;20021;-76
2023/10/18 01:24:15;;;;;;;7.07;4.10;;;;;;;;;;5055418;28;20033;-76
2023/10/18 01:26:40;;;;;;;6.82;3.88;;;;;;;;;;5055050;28;20045;-76
2023/10/18 01:29:09;;;;;;;8.00;3.88;;;;;;;;;;5055030;28;20024;-76
2023/10/18 01:31:36;;;;;;;6.90;3.95;;;;;;;;;;5055361;28;20476;-76
2023/10/18 01:34:03;;;;;;;6.90;4.78;;;;;;;;;;5053968;28;20033;-76
2023/10/18 01:36:32;;;;;;;6.25;3.88;;;;;;;;;;5053826;28;20116;-76
2023/10/18 01:38:58;;;;;;;7.70;4.53;;;;;;;;;;5053810;28;20231;-76
2023/10/18 01:41:28;;;;;;;6.43;3.95;;;;;;;;;;5053522;28;20121;-76
2023/10/18 01:44:07;;;;;;;7.43;4.25;;;;;;;;;;5054270;28;20187;-76
2023/10/18 01:46:33;;;;;;;6.13;4.10;;;;;;;;;;5055062;28;20025;-76
2023/10/18 01:49:00;;;;;;;7.45;3.92;;;;;;;;;;5053850;28;20112;-76
2023/10/18 01:51:26;;;;;;;5.75;3.83;;;;;;;;;;5054768;28;20017;-76
2023/10/18 01:53:54;;;;;;;7.88;4.47;;;;;;;;;;5053703;28;20056;-78
2023/10/18 01:56:21;;;;;;;8.38;4.22;;;;;;;;;;5054780;28;20025;-76
2023/10/18 01:58:50;;;;;;;5.93;3.92;;;;;;;;;;5053642;28;20039;-76
2023/10/18 02:01:16;;;;;;;8.38;4.38;;;;;;;;;;5055034;28;20038;-76
2023/10/18 02:03:44;;;;;;;9.55;4.03;;;;;;;;;;5054861;28;20032;-76
2023/10/18 02:06:13;;;;;;;8.32;4.13;;;;;;;;;;5055001;28;20480;-76
2023/10/18 02:08:40;;;;;;;9.57;4.38;;;;;;;;;;5055094;28;20052;-77
2023/10/18 02:11:07;;;;;;;10.68;4.10;;;;;;;;;;5052819;28;20112;-76
2023/10/18 02:13:32;;;;;;;8.30;3.90;;;;;;;;;;5054601;28;20016;-76
2023/10/18 02:15:58;;;;;;;7.53;4.00;;;;;;;;;;5053542;28;20537;-76
2023/10/18 02:18:23;;;;;;;7.35;4.15;;;;;;;;;;5054811;28;20025;-76
2023/10/18 02:20:52;;;;;;;6.80;3.70;;;;;;;;;;5053187;28;20048;-76
2023/10/18 02:23:19;;;;;;;7.25;4.07;;;;;;;;;;5054349;28;20490;-76
2023/10/18 02:25:45;;;;;;;9.18;4.97;;;;;;;;;;5054629;28;20391;-76
2023/10/18 02:28:27;;;;;;;9.07;4.35;;;;;;;;;;5054768;28;20048;-76
2023/10/18 02:31:10;;;;;;;7.28;4.07;;;;;;;;;;5053435;28;20472;-76
2023/10/18 02:33:38;;;;;;;7.53;4.45;;;;;;;;;;5055001;28;20025;-76
2023/10/18 02:36:11;;;;;;;7.20;4.05;;;;;;;;;;5052783;28;20376;-75
2023/10/18 02:38:41;;;;;;;6.90;4.22;;;;;;;;;;5052865;28;20025;-76
2023/10/18 02:41:20;;;;;;;8.07;4.43;;;;;;;;;;5054190;28;20055;-76
2023/10/18 02:43:46;;;;;;;8.20;4.15;;;;;;;;;;5054171;28;20446;-76
2023/10/18 02:46:14;;;;;;;8.30;4.35;;;;;;;;;;5054020;28;20052;-76
2023/10/18 02:48:41;;;;;;;5.93;4.10;;;;;;;;;;5054056;28;20025;-76
2023/10/18 02:51:06;;;;;;;6.07;3.95;;;;;;;;;;5053246;28;20138;-76
2023/10/18 02:53:33;;;;;;;6.95;4.00;;;;;;;;;;5052736;28;20029;-76
2023/10/18 02:55:59;;;;;;;10.90;4.43;;;;;;;;;;5054020;28;20031;-76
2023/10/18 02:58:33;;;;;;;7.05;4.03;;;;;;;;;;5052292;28;20029;-76
2023/10/18 03:01:05;;;;;;;7.10;4.18;;;;;;;;;;5052543;28;20445;-76
2023/10/18 03:03:39;;;;;;;9.20;4.35;;;;;;;;;;5051985;28;20020;-76
2023/10/18 03:06:12;;;;;;;6.15;4.00;;;;;;;;;;5051281;28;20035;-76
2023/10/18 03:08:38;;;;;;;6.28;4.05;;;;;;;;;;5053989;28;20050;-76
2023/10/18 03:11:05;;;;;;;6.38;4.00;;;;;;;;;;5051951;28;20033;-77
2023/10/18 03:13:31;;;;;;;10.32;4.00;;;;;;;;;;5051571;28;20621;-76
2023/10/18 03:18:39;;;;;;;9.82;4.50;;;;;;;;;;5053887;28;20040;-76
2023/10/18 03:21:08;;;;;;;9.60;4.63;;;;;;;;;;5051903;28;20071;-76
2023/10/18 03:23:44;;;;;;;7.10;4.30;;;;;;;;;;5052646;28;20075;-76
2023/10/18 03:26:11;;;;;;;8.55;4.55;;;;;;;;;;5051995;28;20021;-77
2023/10/18 03:28:39;;;;;;;10.65;4.35;;;;;;;;;;5052415;28;20024;-75
2023/10/18 03:33:53;;;;;;;7.65;4.10;;;;;;;;;;5053539;28;20035;-76
2023/10/18 03:36:25;;;;;;;6.32;3.83;;;;;;;;;;5052875;28;20033;-75
2023/10/18 03:38:54;;;;;;;8.30;4.60;;;;;;;;;;5053263;28;20032;-77
2023/10/18 03:41:22;;;;;;;6.93;4.47;;;;;;;;;;5051611;28;20033;-76
2023/10/18 03:43:48;;;;;;;7.97;4.35;;;;;;;;;;5052836;28;20475;-76
2023/10/18 03:46:29;;;;;;;7.43;4.10;;;;;;;;;;5053188;28;20051;-75
2023/10/18 03:48:54;;;;;;;8.07;4.72;;;;;;;;;;5051769;28;20029;-75
2023/10/18 03:51:30;;;;;;;7.43;4.18;;;;;;;;;;5051608;28;20017;-76
2023/10/18 03:53:56;;;;;;;7.10;4.10;;;;;;;;;;5052922;28;20499;-76
2023/10/18 03:56:22;;;;;;;7.60;4.30;;;;;;;;;;5051533;28;20029;-76
2023/10/18 03:59:00;;;;;;;7.45;4.43;;;;;;;;;;5051579;28;20031;-76
2023/10/18 04:01:39;;;;;;;12.68;4.10;;;;;;;;;;5051439;28;20025;-76
2023/10/18 04:04:05;;;;;;;7.72;4.38;;;;;;;;;;5051351;28;20079;-75
2023/10/18 04:06:35;;;;;;;7.32;3.85;;;;;;;;;;5052725;28;20082;-75
2023/10/18 04:09:08;;;;;;;5.72;4.03;;;;;;;;;;5052860;28;20100;-75
2023/10/18 04:11:33;;;;;;;6.32;3.90;;;;;;;;;;5051492;28;20017;-76
2023/10/18 04:13:59;;;;;;;7.10;4.22;;;;;;;;;;5051142;28;20029;-75
2023/10/18 04:16:30;;;;;;;7.78;4.40;;;;;;;;;;5052704;28;20454;-75
2023/10/18 04:18:56;;;;;;;8.07;4.50;;;;;;;;;;5051317;28;20017;-75
2023/10/18 04:21:25;;;;;;;8.40;4.40;;;;;;;;;;5052544;28;20029;-74
2023/10/18 04:23:56;;;;;;;7.65;4.60;;;;;;;;;;5051190;28;20483;-75
2023/10/18 04:26:21;;;;;;;8.63;4.70;;;;;;;;;;5052490;28;20037;-75
2023/10/18 04:28:48;;;;;;;8.20;4.22;;;;;;;;;;5052717;28;20031;-75
2023/10/18 04:31:14;;;;;;;7.95;4.60;;;;;;;;;;5052365;28;20021;-75
2023/10/18 04:33:49;;;;;;;8.93;4.15;;;;;;;;;;5052577;28;20074;-75
2023/10/18 04:36:18;;;;;;;8.32;4.38;;;;;;;;;;5055599;28;20024;-75
2023/10/18 04:38:44;;;;;;;8.13;4.30;;;;;;;;;;5056309;28;20024;-76
2023/10/18 04:43:50;;;;;;;8.55;4.28;;;;;;;;;;5056892;28;20029;-76
2023/10/18 04:46:18;;;;;;;8.32;4.88;;;;;;;;;;5056458;28;20024;-76
2023/10/18 04:54:01;;;;;;;10.38;4.72;;;;;;;;;;5056291;28;20021;-76
2023/10/18 04:56:34;;;;;;;9.23;4.55;;;;;;;;;;5055909;28;20020;-77
2023/10/18 04:59:00;;;;;;;8.48;4.93;;;;;;;;;;5055855;28;20025;-77
2023/10/18 05:01:34;;;;;;;11.02;4.60;;;;;;;;;;5055639;28;20025;-76
2023/10/18 05:04:18;;;;;;;10.55;5.10;;;;;;;;;;5054385;28;20071;-76
2023/10/18 05:06:43;;;;;;;8.02;4.60;;;;;;;;;;5054351;28;20025;-75
2023/10/18 05:09:10;;;;;;;8.70;4.70;;;;;;;;;;5056136;28;20544;-75
2023/10/18 05:11:46;;;;;;;11.10;4.90;;;;;;;;;;5055638;28;20020;-75
2023/10/18 05:14:19;;;;;;;9.07;4.55;;;;;;;;;;5055978;28;20086;-76
2023/10/18 05:16:46;;;;;;;8.02;4.82;;;;;;;;;;5054237;28;20024;-76
2023/10/18 05:19:12;;;;;;;7.60;4.95;;;;;;;;;;5055426;28;20033;-76
2023/10/18 05:21:39;;;;;;;9.38;4.82;;;;;;;;;;5054477;28;20522;-75
2023/10/18 05:24:05;;;;;;;11.98;5.43;;;;;;;;;;5053739;28;20514;-75
2023/10/18 05:26:33;;;;;;;8.40;4.22;;;;;;;;;;5055050;28;20045;-77
2023/10/18 05:29:02;;;;;;;11.43;4.53;;;;;;;;;;5054682;28;20021;-77
2023/10/18 05:39:27;;;;;;;7.75;4.93;;;;;;;;;;5054956;28;20036;-76
2023/10/18 05:42:03;;;;;;;13.93;4.93;;;;;;;;;;5054633;28;20036;-77
2023/10/18 05:44:28;;;;;;;8.55;4.78;;;;;;;;;;5053352;28;20455;-77
2023/10/18 05:46:54;;;;;;;8.98;4.72;;;;;;;;;;5053243;28;20115;-76
2023/10/18 05:49:27;;;;;;;7.50;5.00;;;;;;;;;;5053354;28;20484;-76
2023/10/18 05:54:37;;;;;;;8.18;4.90;;;;;;;;;;5054867;28;20033;-76
2023/10/18 05:57:02;;;;;;;10.68;4.57;;;;;;;;;;5054437;28;20389;-76
2023/10/18 05:59:28;;;;;;;11.25;5.13;;;;;;;;;;5054442;28;20025;-76
2023/10/18 06:01:58;;;;;;;9.32;5.35;;;;;;;;;;5054251;28;20090;-76
2023/10/18 06:04:24;;;;;;;12.23;5.13;;;;;;;;;;5052630;28;20048;-76
2023/10/18 06:06:49;;;;;;;10.20;5.35;;;;;;;;;;5054600;28;20021;-77
2023/10/18 06:09:26;;;;;;;13.02;5.55;;;;;;;;;;5054134;28;20051;-76
2023/10/18 06:11:52;;;;;;;9.52;5.38;;;;;;;;;;5053903;28;20029;-77
2023/10/18 06:14:17;;;;;;;10.38;5.63;;;;;;;;;;5053972;28;20071;-76
2023/10/18 06:16:43;;;;;;;12.60;5.68;;;;;;;;;;5053906;28;20022;-76
2023/10/18 06:19:13;;;;;;;13.30;5.28;;;;;;;;;;5054039;28;20484;-77
2023/10/18 06:21:47;;;;;;;7.93;4.90;;;;;;;;;;5053174;28;20029;-77
2023/10/18 06:24:16;;;;;;;10.27;5.25;;;;;;;;;;5052565;28;20029;-76
2023/10/18 06:26:44;;;;;;;9.50;5.45;;;;;;;;;;5053852;28;20032;-76
2023/10/18 06:29:11;;;;;;;9.15;4.88;;;;;;;;;;5053843;28;20032;-76
2023/10/18 06:31:42;;;;;;;8.98;5.07;;;;;;;;;;5054240;28;20429;-76
2023/10/18 06:34:15;;;;;;;9.85;5.20;;;;;;;;;;5054191;28;20017;-76
2023/10/18 06:36:40;;;;;;;9.35;5.32;;;;;;;;;;5053102;28;20503;-76
2023/10/18 06:39:06;;;;;;;9.55;6.07;;;;;;;;;;5051846;28;20068;-76
2023/10/18 06:41:31;;;;;;;9.98;5.63;;;;;;;;;;5053163;28;20100;-76
2023/10/18 06:43:59;;;;;;;10.20;5.50;;;;;;;;;;5055501;28;20495;-78
2023/10/18 06:46:26;;;;;;;12.48;5.45;;;;;;;;;;5056133;28;20075;-77
2023/10/18 06:48:58;;;;;;;8.70;5.85;;;;;;;;;;5055856;28;20544;-78
2023/10/18 06:51:33;;;;;;;10.50;5.55;;;;;;;;;;5056675;28;20020;-77
2023/10/18 06:54:05;;;;;;;9.88;5.65;;;;;;;;;;5055619;28;20031;-77
2023/10/18 06:56:32;;;;;;;12.38;6.30;;;;;;;;;;5055220;28;20427;-76
2023/10/18 06:59:05;;;;;;;10.00;5.38;;;;;;;;;;5055045;28;20021;-78
2023/10/18 07:01:31;;;;;;;11.18;5.97;;;;;;;;;;5054452;28;20507;-78
2023/10/18 07:03:57;;;;;;;11.77;5.53;;;;;;;;;;5054970;28;20040;-78
2023/10/18 07:06:29;;;;;;;9.45;5.10;;;;;;;;;;5055286;28;20025;-81
2023/10/18 07:08:55;;;;;;;11.85;5.32;;;;;;;;;;5058730;28;20025;-78
2023/10/18 07:11:22;;;;;;;8.30;5.22;;;;;;;;;;5058067;28;20465;-79
2023/10/18 07:13:50;;;;;;;10.10;5.35;;;;;;;;;;5058193;28;20502;-78
2023/10/18 07:19:21;;;;;;;10.13;5.38;;;;;;;;;;5060699;28;20476;-79
2023/10/18 07:21:46;;;;;;;8.65;5.20;;;;;;;;;;5063395;28;20410;-77
2023/10/18 07:24:11;;;;;;;10.05;6.05;;;;;;;;;;5058903;28;20107;-77
2023/10/18 07:26:37;;;;;;;12.05;5.20;;;;;;;;;;5056692;28;20025;-82
2023/10/18 07:29:09;;;;;;;11.00;5.15;;;;;;;;;;5053173;28;20050;-79
2023/10/18 07:31:46;;;;;;;10.52;5.20;;;;;;;;;;5053273;28;20074;-75
2023/10/18 07:34:19;;;;;;;13.98;5.63;;;;;;;;;;5052637;28;20029;-75
2023/10/18 07:36:45;;;;;;;9.70;5.05;;;;;;;;;;5051406;28;20067;-74
2023/10/18 07:39:16;;;;;;;10.63;5.05;;;;;;;;;;5052983;28;20025;-74
2023/10/18 07:41:41;;;;;;;8.27;4.90;;;;;;;;;;5053031;28;20143;-74
2023/10/18 07:44:07;;;;;;;7.60;4.38;;;;;;;;;;5052910;28;20036;-74
2023/10/18 07:46:34;;;;;;;11.55;4.85;;;;;;;;;;5053297;28;20032;-75
2023/10/18 07:49:15;;;;;;;7.82;4.90;;;;;;;;;;5055404;28;20091;-76
2023/10/18 07:51:48;;;;;;;7.43;4.45;;;;;;;;;;5051432;28;20021;-75
2023/10/18 07:54:15;;;;;;;11.38;4.80;;;;;;;;;;5051400;28;20025;-75
2023/10/18 07:56:48;;;;;;;10.02;5.00;;;;;;;;;;5052644;28;20484;-75
2023/10/18 07:59:27;;;;;;;8.18;4.72;;;;;;;;;;5052490;28;20025;-75
2023/10/18 08:02:07;;;;;;;9.48;4.47;;;;;;;;;;5052483;28;20036;-74
2023/10/18 08:04:34;;;;;;;9.15;4.47;;;;;;;;;;5052277;28;20032;-75
2023/10/18 08:07:00;;;;;;;10.20;4.60;;;;;;;;;;5051291;28;20020;-75
2023/10/18 08:09:28;;;;;;;9.80;3.78;;;;;;;;;;5050997;28;20468;-74
2023/10/18 08:12:05;;;;;;;7.47;4.45;;;;;;;;;;5057061;28;20041;-77
2023/10/18 08:14:31;;;;;;;7.07;4.15;;;;;;;;;;5057689;28;20052;-78
2023/10/18 08:16:56;;;;;;;8.13;4.07;;;;;;;;;;5057536;28;20025;-77
2023/10/18 08:19:23;;;;;;;6.32;4.38;;;;;;;;;;5058065;28;20396;-79
2023/10/18 08:22:21;;;;;;;9.70;3.88;;;;;;;;;;5056760;28;20017;-78
2023/10/18 08:24:49;;;;;;;9.68;4.18;;;;;;;;;;5057679;28;20032;-77
2023/10/18 08:27:14;;;;;;;7.70;3.88;;;;;;;;;;5056700;28;20036;-78
2023/10/18 08:29:42;;;;;;;6.80;3.90;;;;;;;;;;5058009;28;20025;-78
2023/10/18 08:32:17;;;;;;;7.25;3.67;;;;;;;;;;5057385;28;20433;-78
2023/10/18 08:34:48;;;;;;;8.60;4.00;;;;;;;;;;5056305;28;20032;-78
2023/10/18 08:37:13;;;;;;;6.35;3.90;;;;;;;;;;5058633;28;20115;-77
2023/10/18 08:39:55;;;;;;;6.20;3.92;;;;;;;;;;5058598;28;20451;-78
2023/10/18 08:42:39;;;;;;;8.38;4.20;;;;;;;;;;5057671;28;20075;-77
2023/10/18 08:45:07;;;;;;;11.57;3.83;;;;;;;;;;5057736;28;20027;-78
2023/10/18 08:47:39;;;;;;;9.45;3.97;;;;;;;;;;5056936;28;20032;-78
2023/10/18 08:50:06;;;;;;;14.00;4.10;;;;;;;;;;5054620;28;20025;-77
2023/10/18 08:52:35;;;;;;;5.53;3.85;;;;;;;;;;5055030;28;20037;-77
2023/10/18 08:55:19;;;;;;;7.93;3.72;;;;;;;;;;5055302;28;20075;-77
2023/10/18 08:57:46;;;;;;;6.57;3.80;;;;;;;;;;5057969;28;20021;-77
2023/10/18 09:02:51;;;;;;;9.63;3.90;;;;;;;;;;5056219;28;20029;-76
2023/10/18 09:05:22;;;;;;;9.55;3.75;;;;;;;;;;5053921;28;20029;-77
2023/10/18 09:07:50;;;;;;;5.80;3.40;;;;;;;;;;5055526;28;20112;-76
2023/10/18 09:18:19;;;;;;;6.50;3.70;;;;;;;;;;5055350;28;20029;-76
2023/10/18 09:20:46;;;;;;;5.93;3.20;;;;;;;;;;5055774;28;20450;-78
2023/10/18 09:23:19;;;;;;;6.03;3.53;;;;;;;;;;5057366;28;20025;-78
2023/10/18 09:25:48;;;;;;;5.85;3.83;;;;;;;;;;5057369;28;20028;-78
2023/10/18 09:28:32;;;;;;;5.82;4.10;;;;;;;;;;5054989;28;20033;-76
2023/10/18 09:31:04;;;;;;;6.47;3.83;;;;;;;;;;5053677;28;20070;-76
2023/10/18 09:33:33;;;;;;;8.70;4.40;;;;;;;;;;5054971;28;20365;-76
2023/10/18 09:36:01;;;;;;;7.65;3.80;;;;;;;;;;5054899;28;20509;-77
2023/10/18 09:38:39;;;;;;;6.65;4.00;;;;;;;;;;5054742;28;20127;-76
2023/10/18 09:41:05;;;;;;;7.68;3.63;;;;;;;;;;5055093;28;20020;-79
2023/10/18 09:43:31;;;;;;;8.70;4.43;;;;;;;;;;5053237;28;20084;-77
2023/10/18 09:45:59;;;;;;;8.88;4.60;;;;;;;;;;5054486;28;20036;-77
2023/10/18 09:48:25;;;;;;;6.82;3.70;;;;;;;;;;5054783;28;20049;-76
2023/10/18 09:50:53;;;;;;;10.88;4.40;;;;;;;;;;5054698;28;20549;-77
2023/10/18 09:53:22;;;;;;;8.45;4.68;;;;;;;;;;5053830;28;20056;-78
2023/10/18 09:55:50;;;;;;;6.60;3.65;;;;;;;;;;5055716;28;20021;-78
2023/10/18 09:58:18;;;;;;;8.20;4.22;;;;;;;;;;5055347;28;20438;-76
2023/10/18 10:00:49;;;;;;;8.48;4.43;;;;;;;;;;5054035;28;20547;-77
2023/10/18 10:03:24;;;;;;;9.02;4.60;;;;;;;;;;5053346;28;20369;-77
2023/10/18 10:05:49;;;;;;;7.40;4.40;;;;;;;;;;5052964;28;20029;-77
2023/10/18 10:08:15;;;;;;;7.10;4.00;;;;;;;;;;5052731;28;20048;-77
2023/10/18 10:10:51;;;;;;;13.65;4.15;;;;;;;;;;5053907;28;20025;-77
2023/10/18 10:13:18;;;;;;;8.00;4.80;;;;;;;;;;5054117;28;20017;-78
2023/10/18 10:15:47;;;;;;;10.32;4.75;;;;;;;;;;5054241;28;20021;-77
2023/10/18 10:18:13;;;;;;;6.07;4.50;;;;;;;;;;5052725;28;20028;-77
2023/10/18 10:20:41;;;;;;;7.97;4.50;;;;;;;;;;5053906;28;20104;-78
2023/10/18 10:23:14;;;;;;;7.43;4.93;;;;;;;;;;5054521;28;20025;-78
2023/10/18 10:25:48;;;;;;;6.88;4.30;;;;;;;;;;5054126;28;20028;-77
2023/10/18 10:28:53;;;;;;;;;;;;;;;;;;5054576;28;20060;-78
2023/10/18 10:31:22;;;;;;;6.90;4.45;;;;;;;;;;5055701;28;19916;-77
2023/10/18 10:34:06;;;;;;;7.80;4.80;;;;;;;;;;5051858;28;20021;-77
2023/10/18 10:36:34;;;;;;;5.22;3.50;;;;;;;;;;5052253;28;20025;-76
2023/10/18 10:39:02;;;;;;;7.57;4.43;;;;;;;;;;5055315;28;20545;-78
2023/10/18 10:41:31;;;;;;;7.65;4.35;;;;;;;;;;5058255;28;20384;-79
2023/10/18 10:44:06;;;;;;;9.40;5.00;;;;;;;;;;5058885;28;20078;-79
2023/10/18 10:46:39;;;;;;;10.50;4.30;;;;;;;;;;5058824;28;20033;-78
2023/10/18 10:49:47;;;;;;;7.88;4.65;;;;;;;;;;5056440;28;20025;-78
2023/10/18 10:52:18;;;;;;;6.75;4.38;;;;;;;;;;5057212;28;20067;-78
2023/10/18 10:54:47;;;;;;;8.02;4.72;;;;;;;;;;5057823;28;20527;-79
2023/10/18 10:57:15;;;;;;;7.32;4.50;;;;;;;;;;5059506;28;20027;-78
2023/10/18 10:59:52;;;;;;;7.15;4.63;;;;;;;;;;5056692;28;20025;-76
2023/10/18 11:02:29;;;;;;;6.43;4.55;;;;;;;;;;5057880;28;20032;-77
2023/10/18 11:04:59;;;;;;;8.75;4.78;;;;;;;;;;5052757;28;20025;-77
2023/10/18 11:07:25;;;;;;;8.43;4.43;;;;;;;;;;5062659;28;20027;-79
2023/10/18 11:09:58;;;;;;;9.25;4.85;;;;;;;;;;5055232;28;20029;-80
2023/10/18 11:12:26;;;;;;;5.95;4.38;;;;;;;;;;5056397;28;20028;-76
2023/10/18 11:14:52;;;;;;;7.95;4.78;;;;;;;;;;5055417;28;20032;-75
2023/10/18 11:17:18;;;;;;;9.68;4.60;;;;;;;;;;5053436;28;20388;-75
2023/10/18 11:19:51;;;;;;;9.35;4.72;;;;;;;;;;5052796;28;20024;-76
2023/10/18 11:22:21;;;;;;;7.15;4.55;;;;;;;;;;5051607;28;20021;-76
2023/10/18 11:24:55;;;;;;;11.90;5.20;;;;;;;;;;5053560;28;20017;-76
2023/10/18 11:27:25;;;;;;;;;;;;;;;;;;5053451;28;20025;-77
2023/10/18 11:29:56;;;;;;;5.93;4.38;;;;;;;;;;5053642;28;19909;-78
2023/10/18 11:32:28;;;;;;;7.53;4.60;;;;;;;;;;5053745;28;20013;-76
2023/10/18 11:35:09;;;;;;;6.88;4.82;;;;;;;;;;5052224;28;20089;-76
2023/10/18 11:37:36;;;;;;;9.20;4.97;;;;;;;;;;5052586;28;20052;-76
2023/10/18 11:40:21;;;;;;;8.05;4.63;;;;;;;;;;5052664;28;20074;-77
2023/10/18 11:43:09;;;;;;;9.05;5.05;;;;;;;;;;5053144;28;20032;-76
2023/10/18 11:45:39;;;;;;;11.27;4.60;;;;;;;;;;5058963;28;20032;-77
2023/10/18 11:48:09;;;;;;;6.82;4.53;;;;;;;;;;5059740;28;20025;-77
2023/10/18 11:50:42;;;;;;;6.22;4.32;;;;;;;;;;5059880;28;20021;-75
2023/10/18 11:53:12;;;;;;;7.97;4.68;;;;;;;;;;5059135;28;20100;-76
2023/10/18 11:55:55;;;;;;;9.73;4.15;;;;;;;;;;5060064;28;20032;-77
2023/10/18 11:58:24;;;;;;;7.68;4.30;;;;;;;;;;5058545;28;20044;-77
2023/10/18 12:00:55;;;;;;;7.10;4.40;;;;;;;;;;5060204;28;20053;-78
2023/10/18 12:03:23;;;;;;;7.55;4.45;;;;;;;;;;5061445;28;20036;-81
2023/10/18 12:05:48;;;;;;;7.07;4.10;;;;;;;;;;5061190;28;20029;-77
2023/10/18 12:08:14;;;;;;;6.10;4.03;;;;;;;;;;5060167;28;20013;-77
2023/10/18 12:10:39;;;;;;;7.30;4.18;;;;;;;;;;5061729;28;20114;-78
2023/10/18 12:13:12;;;;;;;6.90;4.35;;;;;;;;;;5060467;28;20048;-75
2023/10/18 12:15:38;;;;;;;8.20;3.75;;;;;;;;;;5059188;28;20029;-76
2023/10/18 12:18:05;;;;;;;6.25;3.78;;;;;;;;;;5059316;28;20025;-77
2023/10/18 12:20:42;;;;;;;6.68;4.07;;;;;;;;;;5060639;28;20519;-77
2023/10/18 12:23:12;;;;;;;5.88;3.63;;;;;;;;;;5060252;28;20033;-73
2023/10/18 12:25:38;;;;;;;5.38;4.05;;;;;;;;;;5058118;28;20025;-73
2023/10/18 12:28:12;;;;;;;9.20;4.18;;;;;;;;;;5059936;28;20021;-73
2023/10/18 12:30:51;;;;;;;7.45;4.10;;;;;;;;;;5059292;28;20365;-74
2023/10/18 12:33:27;;;;;;;6.25;4.13;;;;;;;;;;5058671;28;20025;-73
2023/10/18 12:35:56;;;;;;;6.63;4.07;;;;;;;;;;5058285;28;20029;-78
2023/10/18 12:38:31;;;;;;;6.82;4.18;;;;;;;;;;5057872;28;20499;-72
2023/10/18 12:44:17;;;;;;;9.57;4.35;;;;;;;;;;5105115;27;1251635;-76
2023/10/18 12:46:43;;;;;;;6.55;4.30;;;;;;;;;;5131157;27;20046;-75
2023/10/18 12:49:12;;;;;;;7.07;4.57;;;;;;;;;;5136062;27;20024;-75
2023/10/18 12:51:41;;;;;;;7.97;4.28;;;;;;;;;;5133964;27;20027;-74
2023/10/18 12:54:09;;;;;;;7.03;4.32;;;;;;;;;;5134773;27;20022;-74
2023/10/18 12:56:38;;;;;;;7.70;4.18;;;;;;;;;;5134365;28;20034;-72
2023/10/18 13:01:43;;;;;;;7.05;4.30;;;;;;;;;;5132028;27;20018;-76
2023/10/18 13:04:17;;;;;;;7.30;4.20;;;;;;;;;;5130528;27;20395;-75
2023/10/18 13:06:46;;;;;;;7.90;4.60;;;;;;;;;;5130742;27;20023;-74
2023/10/18 13:09:15;;;;;;;5.50;3.78;;;;;;;;;;5130100;28;20437;-74
2023/10/18 13:11:44;;;;;;;7.13;3.90;;;;;;;;;;5131294;27;20034;-74
2023/10/18 13:14:14;;;;;;;4.78;3.35;;;;;;;;;;5132172;27;20024;-77
2023/10/18 13:16:39;;;;;;;6.00;3.67;;;;;;;;;;5131583;27;20027;-73
2023/10/18 13:19:06;;;;;;;6.45;4.25;;;;;;;;;;5129741;28;20118;-72
2023/10/18 13:21:32;;;;;;;8.43;3.97;;;;;;;;;;5131346;27;20539;-72
2023/10/18 13:23:59;;;;;;;7.15;3.97;;;;;;;;;;5131448;27;20023;-73
2023/10/18 13:26:31;;;;;;;7.25;4.28;;;;;;;;;;5131231;27;20156;-73
2023/10/18 13:29:00;;;;;;;5.70;3.67;;;;;;;;;;5132908;27;20020;-73
2023/10/18 13:31:31;;;;;;;7.45;4.30;;;;;;;;;;5133153;27;20023;-74
2023/10/18 13:34:06;;;;;;;5.97;3.75;;;;;;;;;;5130076;27;20038;-75
2023/10/18 13:36:32;;;;;;;6.22;4.25;;;;;;;;;;5131453;27;20462;-75
2023/10/18 13:38:58;;;;;;;7.10;4.13;;;;;;;;;;5132524;27;20028;-74
2023/10/18 13:41:25;;;;;;;8.57;4.50;;;;;;;;;;5130611;28;20034;-75
2023/10/18 13:43:54;;;;;;;7.70;4.35;;;;;;;;;;5131633;27;20042;-75
2023/10/18 13:46:20;;;;;;;9.05;4.05;;;;;;;;;;5132586;27;20312;-77
2023/10/18 13:48:49;;;;;;;6.57;4.65;;;;;;;;;;5130306;27;20080;-76
2023/10/18 13:51:15;;;;;;;6.32;4.28;;;;;;;;;;5130465;27;20020;-76
2023/10/18 13:53:43;;;;;;;5.82;4.07;;;;;;;;;;5127682;27;20076;-77
2023/10/18 13:56:11;;;;;;;5.75;4.22;;;;;;;;;;5117031;28;20531;-75
2023/10/18 13:58:37;;;;;;;6.57;4.45;;;;;;;;;;5117738;28;20367;-74
2023/10/18 14:01:05;;;;;;;6.72;4.53;;;;;;;;;;5117037;28;20034;-75
2023/10/18 14:03:33;;;;;;;6.18;4.25;;;;;;;;;;5116181;27;20047;-75
2023/10/18 14:06:02;;;;;;;7.80;4.57;;;;;;;;;;5117096;28;20057;-76
2023/10/18 14:08:28;;;;;;;6.18;4.40;;;;;;;;;;5117176;28;20024;-74
2023/10/18 14:10:56;;;;;;;8.02;4.45;;;;;;;;;;5119807;28;20390;-78
2023/10/18 14:13:24;;;;;;;7.88;4.80;;;;;;;;;;5118040;28;20020;-79
2023/10/18 14:15:50;;;;;;;7.78;4.75;;;;;;;;;;5118046;28;20031;-76
2023/10/18 14:18:15;;;;;;;6.43;4.28;;;;;;;;;;5118269;28;20020;-76
2023/10/18 14:20:50;;;;;;;7.15;4.65;;;;;;;;;;5117776;28;20020;-78
2023/10/18 14:23:19;;;;;;;6.63;4.63;;;;;;;;;;5119948;28;20027;-75
2023/10/18 14:25:45;;;;;;;7.32;4.78;;;;;;;;;;5119891;28;20023;-77
2023/10/18 14:28:12;;;;;;;8.68;4.60;;;;;;;;;;5118587;28;20030;-77
2023/10/18 14:30:38;;;;;;;12.35;4.90;;;;;;;;;;5121577;28;20047;-77
2023/10/18 14:33:04;;;;;;;9.25;4.72;;;;;;;;;;5118605;28;20031;-77
2023/10/18 14:35:31;;;;;;;7.40;4.60;;;;;;;;;;5119431;28;20051;-77
2023/10/18 14:37:59;;;;;;;7.72;4.65;;;;;;;;;;5116148;28;20446;-75
2023/10/18 14:40:27;;;;;;;9.73;4.65;;;;;;;;;;5118782;28;20043;-75
2023/10/18 14:42:52;;;;;;;7.45;4.72;;;;;;;;;;5117533;28;20024;-76
2023/10/18 14:45:18;;;;;;;6.38;4.43;;;;;;;;;;5118857;28;20122;-76
2023/10/18 14:47:43;;;;;;;8.95;4.45;;;;;;;;;;5119585;28;20450;-78
2023/10/18 14:50:10;;;;;;;10.50;4.63;;;;;;;;;;5119356;28;20047;-75
2023/10/18 14:52:39;;;;;;;8.02;4.90;;;;;;;;;;5116058;28;20035;-77
2023/10/18 14:55:04;;;;;;;8.57;4.85;;;;;;;;;;5116422;28;20031;-77
2023/10/18 14:57:30;;;;;;;7.15;4.63;;;;;;;;;;5114856;28;20031;-77
2023/10/18 14:59:58;;;;;;;9.13;4.85;;;;;;;;;;5115905;28;20062;-77
2023/10/18 15:02:23;;;;;;;9.40;5.03;;;;;;;;;;5116031;28;20110;-76
2023/10/18 15:04:52;;;;;;;7.20;5.28;;;;;;;;;;5115200;28;20493;-78
2023/10/18 15:07:17;;;;;;;12.38;5.53;;;;;;;;;;5116762;28;20030;-78
2023/10/18 15:09:43;;;;;;;8.55;5.28;;;;;;;;;;5117184;28;20024;-78
2023/10/18 15:12:08;;;;;;;7.53;5.07;;;;;;;;;;5119377;28;20034;-78
2023/10/18 15:14:34;;;;;;;11.05;5.05;;;;;;;;;;5115967;28;20075;-78
2023/10/18 15:16:59;;;;;;;8.57;4.80;;;;;;;;;;5116911;28;20025;-78
2023/10/18 15:19:27;;;;;;;7.78;4.97;;;;;;;;;;5118594;28;20031;-78
2023/10/18 15:21:52;;;;;;;10.95;5.45;;;;;;;;;;5117493;28;20077;-78
2023/10/18 15:24:18;;;;;;;9.52;5.47;;;;;;;;;;5117548;28;20342;-78
2023/10/18 15:26:43;;;;;;;8.13;5.00;;;;;;;;;;5116435;28;20125;-78
2023/10/18 15:29:08;;;;;;;9.57;5.35;;;;;;;;;;5116080;28;20042;-77
2023/10/18 15:31:34;;;;;;;7.23;5.10;;;;;;;;;;5118081;28;20023;-79
2023/10/18 15:34:00;;;;;;;6.22;5.13;;;;;;;;;;5115073;28;20260;-78
2023/10/18 15:36:26;;;;;;;7.95;5.38;;;;;;;;;;5115266;28;20036;-77
2023/10/18 15:38:53;;;;;;;11.50;5.60;;;;;;;;;;5114881;28;20028;-77